Time;durP1;ratioP1;P1;durP2;ratioP2;P2;SDS_P1;SDS_P2;PMS_P1;PMS_P2;Temp;Humidity;BMP_temperature;BMP_pressure;BME280_temperature;BME280_humidity;BME280_pressure;Samples;Min_cycle;Max_cycle;Signal;HPM_P1;HPM_P2
2022/10/01 00:00:50;;;;;;;24.40;16.20;;;7.60;99.90;6.80;100065;;;;556288;254;24127;-81
2022/10/01 00:03:19;;;;;;;23.50;15.37;;;7.50;99.90;6.80;100069;;;;564432;254;24269;-81
2022/10/01 00:05:48;;;;;;;26.20;15.83;;;7.50;99.90;6.80;100069;;;;554112;254;24119;-81
2022/10/01 00:08:17;;;;;;;29.60;17.23;;;7.50;99.90;6.70;100074;;;;555435;254;25200;-80
2022/10/01 00:10:48;;;;;;;27.10;16.77;;;7.40;99.90;6.70;100076;;;;555779;254;24160;-81
2022/10/01 00:13:14;;;;;;;21.70;16.23;;;7.40;99.90;6.60;100066;;;;556069;253;24143;-81
2022/10/01 00:15:45;;;;;;;27.80;17.77;;;7.40;99.90;6.60;100058;;;;555729;254;24413;-81
2022/10/01 00:18:10;;;;;;;25.80;15.87;;;7.40;99.90;6.60;100060;;;;553649;254;24244;-81
2022/10/01 00:20:44;;;;;;;23.27;14.90;;;7.30;99.90;6.60;100060;;;;552725;254;24145;-81
2022/10/01 00:23:11;;;;;;;23.53;16.27;;;7.30;99.90;6.50;100055;;;;555991;254;24131;-80
2022/10/01 00:25:42;;;;;;;25.33;16.67;;;7.30;99.90;6.50;100048;;;;555753;253;24140;-81
2022/10/01 00:28:13;;;;;;;28.60;17.30;;;7.20;99.90;6.50;100051;;;;555611;254;24134;-81
2022/10/01 00:30:48;;;;;;;22.53;15.60;;;7.20;99.90;6.40;100051;;;;563365;253;24149;-81
2022/10/01 00:33:16;;;;;;;22.10;16.30;;;7.20;99.90;6.40;100045;;;;555731;254;24217;-81
2022/10/01 00:35:44;;;;;;;20.60;15.50;;;7.20;99.90;6.40;100044;;;;556794;254;24163;-81
2022/10/01 00:38:14;;;;;;;25.70;16.63;;;7.20;99.90;6.40;100041;;;;565045;252;24183;-82
2022/10/01 00:40:39;;;;;;;23.17;15.93;;;7.20;99.90;6.40;100044;;;;557584;254;24187;-81
2022/10/01 00:43:26;;;;;;;32.70;22.90;;;7.20;99.90;6.40;100035;;;;552510;254;35618;-82
2022/10/01 00:45:54;;;;;;;25.27;18.03;;;7.20;99.90;6.40;100040;;;;571676;248;24173;-81
2022/10/01 00:48:24;;;;;;;27.20;17.63;;;7.20;99.90;6.40;100041;;;;563520;251;24141;-83
2022/10/01 00:50:56;;;;;;;22.70;16.10;;;7.20;99.90;6.40;100039;;;;557483;254;24131;-82
2022/10/01 00:53:22;;;;;;;24.90;16.57;;;7.20;99.90;6.40;100044;;;;552540;254;24122;-81
2022/10/01 00:55:54;;;;;;;25.07;15.87;;;7.20;99.90;6.40;100043;;;;566158;252;24172;-80
2022/10/01 00:58:21;;;;;;;30.50;18.17;;;7.10;99.90;6.40;100031;;;;557498;253;24137;-81
2022/10/01 01:00:53;;;;;;;26.07;17.60;;;7.10;99.90;6.40;100045;;;;563819;240;24130;-81
2022/10/01 01:03:17;;;;;;;26.97;16.07;;;7.10;99.90;6.30;100035;;;;563668;251;24187;-83
2022/10/01 01:05:49;;;;;;;26.53;17.00;;;7.10;99.90;6.30;100042;;;;563277;251;24162;-81
2022/10/01 01:08:17;;;;;;;24.10;16.63;;;7.10;99.90;6.20;100033;;;;565180;254;24207;-83
2022/10/01 01:10:51;;;;;;;25.50;16.57;;;7.00;99.90;6.20;100034;;;;552427;254;24135;-82
2022/10/01 01:13:37;;;;;;;25.57;16.83;;;6.90;99.90;6.20;100034;;;;557245;252;24167;-81
2022/10/01 01:16:11;;;;;;;25.13;16.30;;;6.90;99.90;6.10;100039;;;;563814;249;24125;-80
2022/10/01 01:18:48;;;;;;;26.87;17.80;;;6.90;99.90;6.10;100019;;;;565526;248;24147;-83
2022/10/01 01:21:37;;;;;;;25.50;17.30;;;6.90;99.90;6.10;100034;;;;552542;254;25208;-83
2022/10/01 01:24:42;;;;;;;25.53;17.03;;;6.90;99.90;6.10;100037;;;;562670;251;24135;-82
2022/10/01 01:27:30;;;;;;;32.70;24.70;;;6.90;99.90;6.10;100029;;;;558494;255;24223;-81
2022/10/01 01:30:03;;;;;;;36.77;26.93;;;6.90;99.90;6.10;100020;;;;560255;254;24151;-82
2022/10/01 01:32:45;;;;;;;30.97;20.63;;;6.90;99.90;6.10;100019;;;;556283;254;24232;-81
2022/10/01 01:35:11;;;;;;;30.50;23.17;;;6.90;99.90;6.10;100022;;;;556413;253;25193;-81
2022/10/01 01:37:39;;;;;;;30.00;20.30;;;6.90;99.90;6.10;100023;;;;556418;254;24203;-81
2022/10/01 01:40:09;;;;;;;26.97;17.70;;;6.90;99.90;6.10;100021;;;;553160;254;24130;-82
2022/10/01 01:42:36;;;;;;;28.10;18.27;;;6.90;99.90;6.10;100019;;;;556088;254;24208;-82
2022/10/01 01:45:04;;;;;;;25.57;17.57;;;6.90;99.90;6.10;100024;;;;556722;254;24185;-82
2022/10/01 01:47:33;;;;;;;28.97;17.60;;;6.90;99.90;6.20;100021;;;;554310;254;25196;-82
2022/10/01 01:50:01;;;;;;;30.20;18.73;;;6.90;99.90;6.10;100013;;;;557437;253;24112;-82
2022/10/01 01:52:28;;;;;;;30.00;19.97;;;6.90;99.90;6.10;100021;;;;557860;254;24119;-81
2022/10/01 01:55:02;;;;;;;28.10;17.30;;;6.90;99.90;6.10;100013;;;;557746;252;24139;-81
2022/10/01 01:57:26;;;;;;;28.77;18.53;;;6.90;99.90;6.10;100013;;;;557723;254;24116;-81
2022/10/01 01:59:55;;;;;;;27.27;17.83;;;6.90;99.90;6.10;100019;;;;557303;254;24227;-82
2022/10/01 02:02:27;;;;;;;28.13;17.90;;;6.90;99.90;6.10;100013;;;;557246;254;24169;-81
2022/10/01 02:05:01;;;;;;;25.90;18.03;;;6.90;99.90;6.20;100011;;;;557243;254;24157;-80
2022/10/01 02:08:11;;;;;;;29.17;18.23;;;6.90;99.90;6.20;100007;;;;564301;254;24132;-81
2022/10/01 02:11:18;;;;;;;30.10;18.33;;;6.90;99.90;6.20;100009;;;;556516;254;24106;-80
2022/10/01 02:14:01;;;;;;;31.47;20.23;;;6.90;99.90;6.20;100008;;;;571947;248;24117;-81
2022/10/01 02:17:05;;;;;;;29.90;18.80;;;7.00;99.90;6.20;100013;;;;562309;255;24179;-81
2022/10/01 02:19:36;;;;;;;28.07;18.70;;;6.90;99.90;6.20;100009;;;;560838;251;24146;-80
2022/10/01 02:22:12;;;;;;;25.77;18.13;;;7.00;99.90;6.20;100004;;;;567757;251;25157;-79
2022/10/01 02:24:55;;;;;;;29.87;19.07;;;7.00;99.90;6.20;100004;;;;563204;254;24189;-81
2022/10/01 02:27:21;;;;;;;29.93;18.60;;;7.00;99.90;6.20;100008;;;;555862;252;24142;-82
2022/10/01 02:29:53;;;;;;;27.83;18.40;;;7.00;99.90;6.20;99998;;;;565450;252;24140;-82
2022/10/01 02:32:21;;;;;;;30.40;18.67;;;7.00;99.90;6.20;100001;;;;555470;253;24121;-81
2022/10/01 02:34:45;;;;;;;28.40;18.37;;;7.00;99.90;6.20;99994;;;;555778;254;24196;-81
2022/10/01 02:37:16;;;;;;;28.40;17.93;;;6.90;99.90;6.20;99996;;;;562721;251;24154;-81
2022/10/01 02:39:41;;;;;;;27.83;18.10;;;7.00;99.90;6.20;99988;;;;555414;254;24201;-81
2022/10/01 02:42:11;;;;;;;29.90;17.57;;;6.90;99.90;6.20;99990;;;;556336;254;24188;-79
2022/10/01 02:44:41;;;;;;;28.13;17.97;;;6.90;99.90;6.10;99990;;;;555936;254;24140;-81
2022/10/01 02:47:26;;;;;;;27.80;17.20;;;6.90;99.90;6.10;99989;;;;556461;254;24156;-80
2022/10/01 02:49:55;;;;;;;33.40;18.27;;;6.90;99.90;6.10;99998;;;;555505;254;24213;-80
2022/10/01 02:52:38;;;;;;;26.37;16.77;;;6.90;99.90;6.10;99989;;;;556152;254;24134;-82
2022/10/01 02:55:16;;;;;;;26.10;18.13;;;6.90;99.90;6.10;99996;;;;556338;253;24157;-80
2022/10/01 02:57:47;;;;;;;28.80;18.23;;;6.90;99.90;6.10;99991;;;;563430;251;24135;-79
2022/10/01 03:00:12;;;;;;;28.87;17.53;;;6.80;99.90;6.00;99990;;;;557746;255;24133;-80
2022/10/01 03:02:39;;;;;;;30.03;17.77;;;6.80;99.90;6.00;99984;;;;570004;250;24150;-80
2022/10/01 03:05:11;;;;;;;30.27;18.43;;;6.80;99.90;5.90;99983;;;;572826;250;24139;-81
2022/10/01 03:07:39;;;;;;;30.33;18.27;;;6.70;99.90;5.90;99974;;;;561138;252;24218;-80
2022/10/01 03:10:09;;;;;;;26.83;17.80;;;6.70;99.90;5.90;99972;;;;570951;250;24090;-81
2022/10/01 03:12:37;;;;;;;29.10;18.93;;;6.70;99.90;5.90;99972;;;;569220;251;24243;-82
2022/10/01 03:15:08;;;;;;;26.27;17.37;;;6.60;99.90;5.80;99970;;;;557394;254;24160;-81
2022/10/01 03:17:36;;;;;;;27.63;18.73;;;6.60;99.90;5.80;99967;;;;559521;254;24135;-81
2022/10/01 03:20:03;;;;;;;31.73;18.23;;;6.60;99.90;5.80;99962;;;;551434;254;24125;-80
2022/10/01 03:22:28;;;;;;;26.57;18.47;;;6.60;99.90;5.90;99964;;;;556061;254;24176;-81
2022/10/01 03:24:58;;;;;;;25.90;17.53;;;6.70;99.90;5.90;99972;;;;556946;254;24157;-81
2022/10/01 03:27:30;;;;;;;30.30;19.07;;;6.60;99.90;5.90;99963;;;;556160;253;24162;-81
2022/10/01 03:29:54;;;;;;;29.53;17.90;;;6.70;99.90;6.00;99963;;;;551518;254;24215;-80
2022/10/01 03:32:22;;;;;;;31.60;20.23;;;6.70;99.90;5.90;99968;;;;556250;254;24153;-81
2022/10/01 03:34:51;;;;;;;29.87;18.67;;;6.70;99.90;5.90;99962;;;;565860;252;24143;-80
2022/10/01 03:37:20;;;;;;;30.17;19.80;;;6.70;99.90;5.90;99959;;;;556775;254;24162;-82
2022/10/01 03:39:48;;;;;;;39.95;28.33;;;6.70;99.90;5.80;99965;;;;552189;254;35399;-81
2022/10/01 03:42:16;;;;;;;34.80;20.43;;;6.60;99.90;5.90;99952;;;;566004;254;24161;-81
2022/10/01 03:44:47;;;;;;;27.47;19.07;;;6.60;99.90;5.80;99956;;;;557315;254;24121;-82
2022/10/01 03:47:16;;;;;;;32.03;18.40;;;6.60;99.90;5.80;99959;;;;557301;254;24123;-82
2022/10/01 03:49:50;;;;;;;34.53;17.50;;;6.60;99.90;5.80;99952;;;;557165;254;24130;-82
2022/10/01 03:52:20;;;;;;;32.03;19.50;;;6.60;99.90;5.80;99952;;;;556957;252;24130;-81
2022/10/01 03:54:48;;;;;;;31.97;19.23;;;6.60;99.90;5.80;99951;;;;555858;254;24165;-81
2022/10/01 03:57:16;;;;;;;29.37;19.70;;;6.60;99.90;5.80;99950;;;;555694;254;24138;-81
2022/10/01 03:59:45;;;;;;;33.37;19.47;;;6.60;99.90;5.80;99948;;;;556566;254;24148;-81
2022/10/01 04:02:13;;;;;;;32.07;19.87;;;6.60;99.90;5.70;99943;;;;556539;254;24117;-81
2022/10/01 04:04:41;;;;;;;31.77;19.57;;;6.50;99.90;5.70;99946;;;;555736;254;24124;-81
2022/10/01 04:07:09;;;;;;;35.07;21.57;;;6.50;99.90;5.70;99941;;;;555724;252;24114;-80
2022/10/01 04:09:37;;;;;;;36.30;21.10;;;6.50;99.90;5.70;99942;;;;555641;254;24165;-80
2022/10/01 04:12:05;;;;;;;32.20;19.37;;;6.40;99.90;5.70;99939;;;;555732;254;24123;-81
2022/10/01 04:14:34;;;;;;;33.67;20.30;;;6.40;99.90;5.60;99941;;;;556863;253;24157;-79
2022/10/01 04:17:01;;;;;;;34.23;20.90;;;6.40;99.90;5.50;99935;;;;557012;254;24122;-81
2022/10/01 04:19:29;;;;;;;31.77;21.73;;;6.40;99.90;5.50;99939;;;;556421;254;24145;-81
2022/10/01 04:21:58;;;;;;;31.00;19.00;;;6.30;99.90;5.50;99931;;;;556439;254;24135;-81
2022/10/01 04:24:25;;;;;;;34.20;20.90;;;6.30;99.90;5.40;99935;;;;556930;254;24125;-81
2022/10/01 04:26:53;;;;;;;32.47;20.93;;;6.20;99.90;5.40;99936;;;;556716;254;24142;-81
2022/10/01 04:29:21;;;;;;;33.03;21.27;;;6.20;99.90;5.30;99935;;;;556757;254;24174;-82
2022/10/01 04:31:49;;;;;;;34.97;20.30;;;6.10;99.90;5.30;99936;;;;556424;254;24152;-82
2022/10/01 04:34:17;;;;;;;33.27;25.27;;;6.10;99.90;5.30;99935;;;;556940;254;24207;-82
2022/10/01 04:36:45;;;;;;;40.57;31.00;;;6.10;99.90;5.20;99936;;;;557875;254;24141;-82
2022/10/01 04:39:14;;;;;;;43.83;31.83;;;6.00;99.90;5.20;99939;;;;557472;254;24109;-82
2022/10/01 04:41:42;;;;;;;43.07;31.83;;;6.00;99.90;5.20;99936;;;;557451;254;24109;-83
2022/10/01 04:44:10;;;;;;;44.90;33.43;;;6.00;99.90;5.20;99941;;;;557189;254;24142;-82
2022/10/01 04:46:38;;;;;;;42.00;34.53;;;6.00;99.90;5.20;99941;;;;557399;252;25319;-83
2022/10/01 04:49:06;;;;;;;45.17;32.77;;;6.00;99.90;5.20;99952;;;;557250;253;24121;-82
2022/10/01 04:51:34;;;;;;;45.23;33.13;;;6.00;99.90;5.20;99942;;;;557137;254;24125;-82
2022/10/01 04:54:01;;;;;;;45.67;32.73;;;6.00;99.90;5.20;99937;;;;556949;254;24139;-82
2022/10/01 04:56:29;;;;;;;42.60;33.13;;;6.00;99.90;5.20;99935;;;;565878;252;25580;-82
2022/10/01 04:58:57;;;;;;;45.13;33.10;;;6.00;99.90;5.20;99935;;;;556700;254;24162;-82
2022/10/01 05:01:25;;;;;;;44.33;32.83;;;6.00;99.90;5.20;99941;;;;557233;254;24117;-82
2022/10/01 05:03:53;;;;;;;45.77;32.87;;;6.00;99.90;5.30;99939;;;;557093;254;24132;-82
2022/10/01 05:06:21;;;;;;;43.83;32.63;;;6.00;99.90;5.30;99938;;;;556571;254;24134;-82
2022/10/01 05:08:49;;;;;;;42.97;32.20;;;6.10;99.90;5.30;99943;;;;557155;254;24103;-82
2022/10/01 05:11:17;;;;;;;51.90;32.60;;;6.20;99.90;5.40;99945;;;;556959;254;24114;-81
2022/10/01 05:13:45;;;;;;;40.23;29.63;;;6.10;99.90;5.50;99944;;;;556454;254;24150;-81
2022/10/01 05:16:13;;;;;;;41.43;23.33;;;6.20;99.90;5.50;99940;;;;556468;254;24218;-81
2022/10/01 05:18:42;;;;;;;41.47;23.33;;;6.30;99.90;5.60;99947;;;;556418;254;24150;-82
2022/10/01 05:21:10;;;;;;;38.47;22.50;;;6.40;99.90;5.70;99944;;;;556428;252;24185;-82
2022/10/01 05:23:41;;;;;;;36.13;21.67;;;6.50;99.90;5.80;99944;;;;556303;252;24156;-81
2022/10/01 05:26:06;;;;;;;38.97;20.83;;;6.60;99.90;5.90;99945;;;;557272;253;24142;-82
2022/10/01 05:28:34;;;;;;;37.60;22.87;;;6.60;99.90;6.00;99946;;;;557358;254;24120;-81
2022/10/01 05:31:06;;;;;;;34.57;22.50;;;6.80;99.90;6.10;99943;;;;556860;254;24128;-82
2022/10/01 05:33:33;;;;;;;35.10;20.80;;;6.80;99.90;6.10;99943;;;;556619;254;24134;-82
2022/10/01 05:36:02;;;;;;;32.70;21.73;;;6.90;99.90;6.20;99945;;;;560329;254;24120;-82
2022/10/01 05:38:27;;;;;;;36.83;21.87;;;6.90;99.90;6.30;99940;;;;550945;254;24124;-81
2022/10/01 05:40:59;;;;;;;37.47;22.50;;;7.00;99.90;6.40;99937;;;;556301;254;24118;-81
2022/10/01 05:43:25;;;;;;;33.93;21.47;;;7.30;99.90;6.60;99942;;;;556094;253;24164;-81
2022/10/01 05:45:52;;;;;;;41.60;21.80;;;7.30;99.90;6.80;99931;;;;556193;252;24148;-81
2022/10/01 05:48:20;;;;;;;32.70;21.70;;;7.50;99.90;7.00;99933;;;;556402;254;24102;-81
2022/10/01 05:50:48;;;;;;;35.83;23.03;;;7.70;99.90;7.10;99930;;;;556901;252;24146;-81
2022/10/01 05:53:16;;;;;;;32.20;23.07;;;7.80;99.90;7.30;99938;;;;557187;254;24139;-81
2022/10/01 05:55:43;;;;;;;40.90;23.47;;;8.00;99.90;7.80;99932;;;;556880;254;24175;-81
2022/10/01 05:58:15;;;;;;;41.73;24.03;;;9.30;99.90;8.90;99937;;;;557264;254;24101;-81
2022/10/01 06:00:44;;;;;;;39.33;26.33;;;9.20;99.90;10.10;99941;;;;556881;254;24128;-81
2022/10/01 06:03:12;;;;;;;41.07;26.97;;;10.40;99.90;11.30;99941;;;;556333;253;24129;-82
2022/10/01 06:05:37;;;;;;;37.53;27.73;;;11.70;99.90;11.90;99946;;;;565063;251;24135;-81
2022/10/01 06:08:10;;;;;;;36.40;25.23;;;12.40;99.90;12.80;99949;;;;569719;251;24104;-81
2022/10/01 06:10:35;;;;;;;34.23;24.73;;;13.20;99.90;14.20;99946;;;;562468;251;24127;-81
2022/10/01 06:13:04;;;;;;;25.93;19.80;;;15.90;99.90;15.70;99942;;;;562193;251;24117;-81
2022/10/01 06:15:33;;;;;;;19.20;16.73;;;17.30;99.90;17.10;99937;;;;552442;255;24146;-82
2022/10/01 06:18:10;;;;;;;21.10;17.00;;;18.60;99.90;18.40;99943;;;;552466;255;24162;-82
2022/10/01 06:20:35;;;;;;;21.07;15.53;;;18.50;99.90;19.60;99942;;;;555689;254;24184;-82
2022/10/01 06:23:06;;;;;;;21.13;16.00;;;19.90;99.90;20.70;99946;;;;556097;254;24179;-82
2022/10/01 06:25:35;;;;;;;21.63;15.60;;;20.90;99.90;21.50;99941;;;;570554;251;24172;-81
2022/10/01 06:28:05;;;;;;;18.00;14.83;;;22.80;99.90;22.50;99943;;;;562097;251;24136;-81
2022/10/01 06:30:33;;;;;;;21.40;15.30;;;23.60;95.80;23.40;99931;;;;568751;252;24190;-81
2022/10/01 06:33:04;;;;;;;20.30;15.37;;;24.10;92.60;23.70;99933;;;;564345;251;24186;-81
2022/10/01 06:35:32;;;;;;;17.03;15.43;;;24.10;92.20;24.40;99929;;;;555928;254;23182;-81
2022/10/01 06:38:03;;;;;;;16.87;15.07;;;24.70;84.80;24.90;99925;;;;557440;253;24121;-81
2022/10/01 06:40:32;;;;;;;18.40;15.93;;;25.20;82.60;25.40;99930;;;;556629;254;24154;-81
2022/10/01 06:42:59;;;;;;;18.37;16.37;;;25.80;76.50;25.80;99934;;;;554475;254;24132;-80
2022/10/01 06:45:24;;;;;;;19.27;16.23;;;26.30;72.90;26.40;99933;;;;571370;247;24126;-81
2022/10/01 06:48:01;;;;;;;20.13;15.73;;;26.70;69.80;26.90;99931;;;;553523;254;23174;-80
2022/10/01 06:50:26;;;;;;;17.00;15.20;;;27.20;68.90;27.50;99931;;;;571638;248;23159;-81
2022/10/01 06:52:54;;;;;;;17.40;15.33;;;27.80;65.50;28.10;99934;;;;553574;255;23196;-81
2022/10/01 06:55:22;;;;;;;17.33;15.20;;;28.30;63.70;28.60;99931;;;;557062;254;24123;-82
2022/10/01 06:57:59;;;;;;;15.53;13.97;;;28.90;61.90;29.10;99927;;;;561449;255;23206;-82
2022/10/01 07:00:27;;;;;;;15.50;14.10;;;29.50;59.60;29.60;99921;;;;552706;254;24140;-82
2022/10/01 07:02:54;;;;;;;16.57;14.97;;;30.00;56.90;29.90;99925;;;;565545;252;23164;-81
2022/10/01 07:05:19;;;;;;;15.63;14.20;;;30.30;56.30;30.10;99925;;;;565559;252;23206;-80
2022/10/01 07:07:47;;;;;;;14.57;13.10;;;30.50;55.00;30.40;99926;;;;557256;253;24091;-82
2022/10/01 07:10:15;;;;;;;13.45;12.27;;;30.80;54.50;30.70;99923;;;;557384;254;23161;-81
2022/10/01 07:12:43;;;;;;;14.32;12.77;;;31.10;53.50;31.20;99920;;;;565379;252;23138;-81
2022/10/01 07:15:11;;;;;;;14.77;12.98;;;31.50;53.20;31.70;99923;;;;556724;254;23167;-82
2022/10/01 07:17:48;;;;;;;13.32;12.25;;;32.00;52.00;32.00;99920;;;;556429;254;23137;-81
2022/10/01 07:20:16;;;;;;;12.48;11.40;;;32.70;49.50;32.30;99919;;;;561733;251;23140;-80
2022/10/01 07:22:42;;;;;;;12.45;11.43;;;32.80;49.40;32.30;99921;;;;551140;255;23163;-81
2022/10/01 07:25:11;;;;;;;12.73;11.52;;;33.00;48.10;32.50;99919;;;;560214;253;35514;-81
2022/10/01 07:27:42;;;;;;;12.98;11.80;;;32.90;48.00;32.70;99920;;;;551866;254;35512;-82
2022/10/01 07:30:07;;;;;;;12.07;11.00;;;33.00;47.90;32.70;99917;;;;565297;254;23146;-82
2022/10/01 07:32:34;;;;;;;12.23;11.20;;;33.10;47.90;33.00;99915;;;;556889;254;24126;-83
2022/10/01 07:35:05;;;;;;;11.35;10.45;;;33.40;46.80;33.00;99908;;;;556389;254;23163;-82
2022/10/01 07:37:30;;;;;;;12.35;11.32;;;33.50;47.00;33.40;99913;;;;556535;254;23192;-82
2022/10/01 07:39:58;;;;;;;13.27;12.07;;;33.70;46.80;33.80;99907;;;;556708;254;24134;-82
2022/10/01 07:42:26;;;;;;;13.20;11.95;;;34.20;46.70;34.20;99910;;;;556744;254;23128;-82
2022/10/01 07:44:58;;;;;;;13.07;12.00;;;34.60;45.80;34.50;99904;;;;556783;254;23099;-83
2022/10/01 07:47:25;;;;;;;14.20;12.80;;;34.90;46.00;34.70;99901;;;;556848;252;23156;-83
2022/10/01 07:49:53;;;;;;;14.57;13.25;;;35.20;45.20;35.20;99907;;;;557981;254;23143;-83
2022/10/01 07:52:18;;;;;;;14.70;13.32;;;35.60;44.70;35.50;99899;;;;557137;254;23144;-83
2022/10/01 07:54:46;;;;;;;13.02;11.90;;;36.00;44.00;35.90;99905;;;;558036;254;23204;-82
2022/10/01 07:57:17;;;;;;;13.48;12.30;;;36.40;43.30;36.00;99894;;;;558012;254;23144;-82
2022/10/01 07:59:45;;;;;;;13.38;12.20;;;36.70;42.70;35.90;99893;;;;553012;254;24177;-81
2022/10/01 08:02:19;;;;;;;13.13;11.98;;;36.70;42.30;35.90;99894;;;;557559;254;23134;-82
2022/10/01 08:07:36;;;;;;;13.02;11.73;;;36.20;42.00;34.30;99893;;;;557789;254;23169;-81
2022/10/01 08:10:00;;;;;;;13.38;12.37;;;35.40;42.90;33.90;99900;;;;552733;250;35579;-82
2022/10/01 08:12:29;;;;;;;13.05;11.82;;;34.90;43.00;33.10;99888;;;;557877;254;23186;-82
2022/10/01 08:14:56;;;;;;;12.13;11.12;;;34.20;43.10;33.00;99877;;;;557467;252;23133;-83
2022/10/01 08:17:24;;;;;;;13.10;9.85;;;34.00;43.40;32.90;99886;;;;557445;254;23154;-83
2022/10/01 08:19:52;;;;;;;11.32;10.32;;;33.80;43.40;32.50;99886;;;;557143;254;23188;-82
2022/10/01 08:22:19;;;;;;;10.40;9.63;;;33.60;43.50;32.00;99884;;;;557285;254;23118;-82
2022/10/01 08:24:47;;;;;;;10.88;9.90;;;33.00;43.60;31.80;99876;;;;557046;254;23140;-83
2022/10/01 08:27:15;;;;;;;10.50;9.57;;;32.70;43.70;31.80;99874;;;;557153;254;23119;-83
2022/10/01 08:29:43;;;;;;;10.35;9.43;;;32.60;44.40;32.30;99867;;;;556908;254;25288;-81
2022/10/01 08:32:11;;;;;;;10.20;9.38;;;32.90;44.00;33.10;99863;;;;556051;254;23176;-84
2022/10/01 08:34:39;;;;;;;13.43;12.07;;;33.50;43.70;33.30;99868;;;;556266;254;23127;-82
2022/10/01 08:37:10;;;;;;;13.75;12.27;;;34.10;43.40;32.80;99870;;;;556222;254;23158;-83
2022/10/01 08:39:36;;;;;;;13.73;12.57;;;33.90;43.80;32.50;99863;;;;565001;254;23150;-82
2022/10/01 08:42:39;;;;;;;12.32;11.12;;;33.70;44.00;32.60;99865;;;;556586;254;23135;-81
2022/10/01 08:45:13;;;;;;;13.20;12.00;;;33.70;44.20;32.70;99856;;;;551839;254;35397;-82
2022/10/01 08:47:44;;;;;;;12.43;9.93;;;33.70;43.70;32.80;99864;;;;552893;254;23179;-83
2022/10/01 08:50:26;;;;;;;11.35;10.23;;;33.90;43.40;33.00;99852;;;;555544;254;23159;-82
2022/10/01 08:53:00;;;;;;;10.00;9.15;;;34.10;42.70;31.80;99852;;;;556538;254;24128;-82
2022/10/01 08:55:30;;;;;;;10.13;9.02;;;33.40;43.20;30.70;99850;;;;571431;251;23191;-83
2022/10/01 08:57:56;;;;;;;10.45;9.43;;;32.40;44.20;29.90;99841;;;;553505;254;23185;-83
2022/10/01 09:00:24;;;;;;;10.40;9.60;;;31.60;44.80;29.50;99841;;;;554715;253;23192;-82
2022/10/01 09:02:52;;;;;;;11.25;10.15;;;30.90;45.90;29.70;99842;;;;555007;254;23181;-83
2022/10/01 09:05:37;;;;;;;11.57;10.57;;;30.80;46.50;29.90;99837;;;;557597;254;23142;-82
2022/10/01 09:08:23;;;;;;;12.88;11.15;;;30.90;47.10;30.40;99830;;;;566804;251;23112;-84
2022/10/01 09:10:56;;;;;;;11.63;10.63;;;31.40;46.80;29.60;99830;;;;565412;249;23151;-84
2022/10/01 09:13:46;;;;;;;12.60;11.40;;;31.00;46.20;29.60;99823;;;;557223;253;24110;-83
2022/10/01 09:16:31;;;;;;;12.80;11.32;;;30.80;46.10;29.00;99820;;;;561440;255;23179;-83
2022/10/01 09:19:55;;;;;;;11.52;10.43;;;30.40;46.80;27.50;99813;;;;556953;254;23131;-84
2022/10/01 09:22:40;;;;;;;10.77;9.77;;;29.20;47.80;25.40;99811;;;;565959;252;23186;-84
2022/10/01 09:25:12;;;;;;;11.83;10.83;;;27.30;50.10;23.90;99801;;;;565196;252;23193;-84
2022/10/01 09:27:43;;;;;;;10.10;9.13;;;25.60;53.00;23.70;99796;;;;564897;252;23159;-83
2022/10/01 09:30:10;;;;;;;11.97;9.87;;;24.90;54.90;23.70;99797;;;;556101;254;23218;-83
2022/10/01 09:32:41;;;;;;;9.27;8.47;;;24.60;55.60;23.80;99789;;;;553138;254;24154;-83
2022/10/01 09:35:36;;;;;;;11.60;10.50;;;24.80;55.50;24.40;99782;;;;564820;252;24123;-84
2022/10/01 09:38:04;;;;;;;11.03;9.83;;;25.40;54.70;25.20;99783;;;;556787;254;24086;-83
2022/10/01 09:40:53;;;;;;;10.37;9.37;;;26.30;53.60;25.70;99777;;;;559461;251;23142;-84
2022/10/01 09:43:23;;;;;;;10.03;9.07;;;26.80;52.70;25.90;99774;;;;562051;251;24183;-84
2022/10/01 09:45:48;;;;;;;9.60;8.80;;;27.10;52.10;26.50;99775;;;;552014;255;23203;-83
2022/10/01 09:48:21;;;;;;;9.80;8.83;;;27.70;51.80;27.00;99778;;;;563248;251;23185;-83
2022/10/01 09:50:53;;;;;;;9.63;8.67;;;28.30;50.80;27.30;99767;;;;558594;255;23170;-84
2022/10/01 09:53:17;;;;;;;10.30;9.30;;;28.70;50.30;27.30;99771;;;;555875;254;23123;-82
2022/10/01 09:55:46;;;;;;;9.50;8.70;;;28.90;49.70;27.30;99771;;;;556217;254;23146;-82
2022/10/01 09:58:26;;;;;;;10.53;9.40;;;28.80;49.60;26.90;99763;;;;552748;254;24220;-82
2022/10/01 10:00:58;;;;;;;11.27;10.23;;;28.60;50.40;26.50;99768;;;;564785;254;24178;-84
2022/10/01 10:03:25;;;;;;;10.73;9.73;;;28.20;51.10;26.10;99768;;;;554859;254;23157;-83
2022/10/01 10:05:52;;;;;;;12.23;8.83;;;27.70;51.90;26.00;99758;;;;565239;252;23158;-84
2022/10/01 10:08:36;;;;;;;9.60;8.60;;;27.50;52.30;26.20;99751;;;;563190;251;23130;-84
2022/10/01 10:11:06;;;;;;;9.50;8.60;;;27.50;52.50;26.20;99753;;;;557512;253;24134;-84
2022/10/01 10:13:40;;;;;;;9.77;8.87;;;27.60;52.80;26.20;99741;;;;564274;250;23182;-83
2022/10/01 10:16:25;;;;;;;9.73;8.87;;;27.50;52.30;25.40;99741;;;;564187;251;23217;-84
2022/10/01 10:18:59;;;;;;;9.43;8.63;;;27.00;52.90;24.90;99729;;;;564029;251;23137;-85
2022/10/01 10:21:38;;;;;;;9.73;8.83;;;26.50;53.90;24.20;99732;;;;557000;254;24110;-84
2022/10/01 10:24:06;;;;;;;11.73;8.70;;;25.90;55.10;23.60;99733;;;;554425;253;24129;-81
2022/10/01 10:26:38;;;;;;;9.90;8.90;;;24.40;57.50;22.90;99731;;;;555214;253;24152;-81
2022/10/01 10:29:09;;;;;;;10.90;9.80;;;24.30;57.50;22.20;99735;;;;556445;254;24128;-81
2022/10/01 10:31:49;;;;;;;10.00;8.97;;;23.50;59.10;21.70;99725;;;;556434;252;24109;-82
2022/10/01 10:34:35;;;;;;;12.00;9.20;;;22.90;60.60;21.50;99721;;;;556764;254;24118;-82
2022/10/01 10:37:06;;;;;;;12.10;10.82;;;22.50;62.60;21.10;99713;;;;551674;254;35521;-81
2022/10/01 10:39:31;;;;;;;10.33;9.33;;;22.00;64.50;20.60;99706;;;;570313;247;24141;-80
2022/10/01 10:41:59;;;;;;;9.77;8.47;;;21.50;65.50;20.40;99711;;;;563136;251;24141;-82
2022/10/01 10:44:38;;;;;;;10.37;8.37;;;21.10;67.00;20.10;99699;;;;556905;254;23135;-82
2022/10/01 10:47:10;;;;;;;8.73;7.67;;;20.40;69.70;19.70;99697;;;;564738;251;24144;-81
2022/10/01 10:49:52;;;;;;;10.00;9.07;;;20.30;69.60;19.30;99683;;;;562159;251;24124;-82
2022/10/01 10:52:35;;;;;;;12.50;8.63;;;19.90;71.10;18.90;99691;;;;556569;254;24105;-82
2022/10/01 10:55:18;;;;;;;12.60;9.00;;;19.60;72.90;18.70;99683;;;;564673;252;24119;-83
2022/10/01 10:57:46;;;;;;;9.90;8.67;;;19.10;75.30;18.50;99679;;;;541159;256;24189;-82
2022/10/01 11:00:17;;;;;;;11.93;9.43;;;19.00;75.20;18.40;99674;;;;562816;251;24196;-83
2022/10/01 11:02:51;;;;;;;10.83;9.13;;;18.90;76.30;18.30;99673;;;;552834;255;24177;-82
2022/10/01 11:05:27;;;;;;;14.53;8.77;;;18.80;77.20;18.20;99668;;;;556432;253;24103;-82
2022/10/01 11:07:53;;;;;;;10.63;9.27;;;18.70;78.10;18.00;99660;;;;556479;253;24109;-82
2022/10/01 11:10:21;;;;;;;11.10;8.57;;;18.50;78.90;17.80;99654;;;;556367;254;24216;-81
2022/10/01 11:13:13;;;;;;;12.53;9.20;;;18.40;79.80;17.70;99656;;;;556296;253;24118;-82
2022/10/01 11:16:23;;;;;;;9.60;8.60;;;18.20;80.60;17.70;99651;;;;563861;253;24120;-83
2022/10/01 11:19:16;;;;;;;13.93;8.33;;;18.20;81.70;17.60;99647;;;;566121;252;24123;-82
2022/10/01 11:21:58;;;;;;;11.33;8.40;;;18.20;82.20;17.60;99642;;;;556337;254;24112;-82
2022/10/01 11:24:38;;;;;;;8.40;7.43;;;18.10;83.30;17.70;99633;;;;566440;251;24158;-82
2022/10/01 11:27:37;;;;;;;9.73;7.43;;;18.20;83.50;17.60;99627;;;;557810;254;24151;-83
2022/10/01 11:30:23;;;;;;;11.27;8.37;;;18.10;82.90;17.50;99620;;;;565294;253;24136;-81
2022/10/01 11:32:53;;;;;;;9.70;7.57;;;18.10;82.90;17.40;99617;;;;556859;254;24107;-82